sensor_id;sensor_type;location;lat;lon;timestamp;temperature;humidity
8539;DHT22;4307;53.868;11.680;2023-04-01T00:01:23;9.50;99.90
8539;DHT22;4307;53.868;11.680;2023-04-01T00:03:50;9.40;99.90
8539;DHT22;4307;53.868;11.680;2023-04-01T00:06:18;9.40;99.90
8539;DHT22;4307;53.868;11.680;2023-04-01T00:08:45;9.30;99.90
8539;DHT22;4307;53.868;11.680;2023-04-01T00:11:12;9.20;99.90
8539;DHT22;4307;53.868;11.680;2023-04-01T00:13:38;9.20;99.90
8539;DHT22;4307;53.868;11.680;2023-04-01T00:16:07;9.00;99.90
8539;DHT22;4307;53.868;11.680;2023-04-01T00:18:34;8.90;99.90
8539;DHT22;4307;53.868;11.680;2023-04-01T00:21:00;8.90;99.90
8539;DHT22;4307;53.868;11.680;2023-04-01T00:23:27;8.90;99.90
8539;DHT22;4307;53.868;11.680;2023-04-01T00:25:54;8.80;99.90
8539;DHT22;4307;53.868;11.680;2023-04-01T00:28:21;8.60;99.90
8539;DHT22;4307;53.868;11.680;2023-04-01T00:30:48;8.60;99.90
8539;DHT22;4307;53.868;11.680;2023-04-01T00:33:16;8.60;99.90
8539;DHT22;4307;53.868;11.680;2023-04-01T00:35:43;8.50;99.90
8539;DHT22;4307;53.868;11.680;2023-04-01T00:38:10;8.40;99.90
8539;DHT22;4307;53.868;11.680;2023-04-01T00:40:39;8.30;99.90
8539;DHT22;4307;53.868;11.680;2023-04-01T00:43:10;8.30;99.90
8539;DHT22;4307;53.868;11.680;2023-04-01T00:45:39;8.20;99.90
8539;DHT22;4307;53.868;11.680;2023-04-01T00:48:10;8.10;99.90
8539;DHT22;4307;53.868;11.680;2023-04-01T00:50:39;8.10;99.90
8539;DHT22;4307;53.868;11.680;2023-04-01T00:53:07;8.10;99.90
8539;DHT22;4307;53.868;11.680;2023-04-01T00:55:37;8.00;99.90
8539;DHT22;4307;53.868;11.680;2023-04-01T00:58:08;8.00;99.90
8539;DHT22;4307;53.868;11.680;2023-04-01T01:00:38;8.00;99.90
8539;DHT22;4307;53.868;11.680;2023-04-01T01:03:04;7.90;99.90
8539;DHT22;4307;53.868;11.680;2023-04-01T01:05:45;7.90;99.90
8539;DHT22;4307;53.868;11.680;2023-04-01T01:08:25;7.90;99.90
8539;DHT22;4307;53.868;11.680;2023-04-01T01:10:55;7.80;99.90
8539;DHT22;4307;53.868;11.680;2023-04-01T01:13:26;7.80;99.90
8539;DHT22;4307;53.868;11.680;2023-04-01T01:16:01;7.70;99.90
8539;DHT22;4307;53.868;11.680;2023-04-01T01:18:35;7.70;99.90
8539;DHT22;4307;53.868;11.680;2023-04-01T01:21:30;7.60;99.90
8539;DHT22;4307;53.868;11.680;2023-04-01T01:24:17;7.60;99.90
8539;DHT22;4307;53.868;11.680;2023-04-01T01:27:00;7.50;99.90
8539;DHT22;4307;53.868;11.680;2023-04-01T01:32:59;7.50;99.90
8539;DHT22;4307;53.868;11.680;2023-04-01T01:35:31;7.40;99.90
8539;DHT22;4307;53.868;11.680;2023-04-01T01:38:01;7.40;99.90
8539;DHT22;4307;53.868;11.680;2023-04-01T01:40:31;7.40;99.90
8539;DHT22;4307;53.868;11.680;2023-04-01T01:43:00;7.40;99.90
8539;DHT22;4307;53.868;11.680;2023-04-01T01:45:31;7.30;99.90
8539;DHT22;4307;53.868;11.680;2023-04-01T01:47:58;7.20;99.90
8539;DHT22;4307;53.868;11.680;2023-04-01T01:50:28;7.20;99.90
8539;DHT22;4307;53.868;11.680;2023-04-01T01:53:03;7.20;99.90
8539;DHT22;4307;53.868;11.680;2023-04-01T01:55:32;7.20;99.90
8539;DHT22;4307;53.868;11.680;2023-04-01T01:58:03;7.10;99.90
8539;DHT22;4307;53.868;11.680;2023-04-01T02:00:30;7.10;99.90
8539;DHT22;4307;53.868;11.680;2023-04-01T02:02:58;7.10;99.90
8539;DHT22;4307;53.868;11.680;2023-04-01T02:05:28;7.10;99.90
8539;DHT22;4307;53.868;11.680;2023-04-01T02:08:01;7.00;99.90
8539;DHT22;4307;53.868;11.680;2023-04-01T02:10:31;7.00;99.90
8539;DHT22;4307;53.868;11.680;2023-04-01T02:13:02;7.00;99.90
8539;DHT22;4307;53.868;11.680;2023-04-01T02:15:32;7.00;99.90
8539;DHT22;4307;53.868;11.680;2023-04-01T02:18:02;7.00;99.90
8539;DHT22;4307;53.868;11.680;2023-04-01T02:20:31;6.90;99.90
8539;DHT22;4307;53.868;11.680;2023-04-01T02:22:59;6.90;99.90
8539;DHT22;4307;53.868;11.680;2023-04-01T02:25:29;6.90;99.90
8539;DHT22;4307;53.868;11.680;2023-04-01T02:27:59;6.80;99.90
8539;DHT22;4307;53.868;11.680;2023-04-01T02:30:27;6.80;99.90
8539;DHT22;4307;53.868;11.680;2023-04-01T02:32:56;6.80;99.90
8539;DHT22;4307;53.868;11.680;2023-04-01T02:35:23;6.80;99.90
8539;DHT22;4307;53.868;11.680;2023-04-01T02:37:55;6.70;99.90
8539;DHT22;4307;53.868;11.680;2023-04-01T02:40:22;6.80;99.90
8539;DHT22;4307;53.868;11.680;2023-04-01T02:42:48;6.70;99.90
8539;DHT22;4307;53.868;11.680;2023-04-01T02:45:16;6.70;99.90
8539;DHT22;4307;53.868;11.680;2023-04-01T02:47:42;6.70;99.90
8539;DHT22;4307;53.868;11.680;2023-04-01T02:50:10;6.60;99.90
8539;DHT22;4307;53.868;11.680;2023-04-01T02:52:36;6.60;99.90
8539;DHT22;4307;53.868;11.680;2023-04-01T02:55:06;6.60;99.90
8539;DHT22;4307;53.868;11.680;2023-04-01T02:57:33;6.60;99.90
8539;DHT22;4307;53.868;11.680;2023-04-01T02:59:59;6.60;99.90
8539;DHT22;4307;53.868;11.680;2023-04-01T03:02:26;6.50;99.90
8539;DHT22;4307;53.868;11.680;2023-04-01T03:04:53;6.50;99.90
8539;DHT22;4307;53.868;11.680;2023-04-01T03:07:19;6.50;99.90
8539;DHT22;4307;53.868;11.680;2023-04-01T03:09:46;6.50;99.90
8539;DHT22;4307;53.868;11.680;2023-04-01T03:12:14;6.50;99.90
8539;DHT22;4307;53.868;11.680;2023-04-01T03:14:41;6.50;99.90
8539;DHT22;4307;53.868;11.680;2023-04-01T03:17:07;6.40;99.90
8539;DHT22;4307;53.868;11.680;2023-04-01T03:19:34;6.40;99.90
8539;DHT22;4307;53.868;11.680;2023-04-01T03:22:00;6.30;99.90
8539;DHT22;4307;53.868;11.680;2023-04-01T03:24:27;6.30;99.90
8539;DHT22;4307;53.868;11.680;2023-04-01T03:26:54;6.30;99.90
8539;DHT22;4307;53.868;11.680;2023-04-01T03:29:22;6.30;99.90
8539;DHT22;4307;53.868;11.680;2023-04-01T03:31:49;6.30;99.90
8539;DHT22;4307;53.868;11.680;2023-04-01T03:34:15;6.20;99.90
8539;DHT22;4307;53.868;11.680;2023-04-01T03:36:42;6.20;99.90
8539;DHT22;4307;53.868;11.680;2023-04-01T03:39:08;6.20;99.90
8539;DHT22;4307;53.868;11.680;2023-04-01T03:41:36;6.20;99.90
8539;DHT22;4307;53.868;11.680;2023-04-01T03:44:03;6.10;99.90
8539;DHT22;4307;53.868;11.680;2023-04-01T03:46:31;6.10;99.90
8539;DHT22;4307;53.868;11.680;2023-04-01T03:48:57;6.00;99.90
8539;DHT22;4307;53.868;11.680;2023-04-01T03:51:24;6.10;99.90
8539;DHT22;4307;53.868;11.680;2023-04-01T03:53:51;6.10;99.90
8539;DHT22;4307;53.868;11.680;2023-04-01T03:56:18;6.00;99.90
8539;DHT22;4307;53.868;11.680;2023-04-01T03:58:44;6.00;99.90
8539;DHT22;4307;53.868;11.680;2023-04-01T04:01:16;6.00;99.90
8539;DHT22;4307;53.868;11.680;2023-04-01T04:03:44;6.00;99.90
8539;DHT22;4307;53.868;11.680;2023-04-01T04:06:12;6.00;99.90
8539;DHT22;4307;53.868;11.680;2023-04-01T04:08:39;5.90;99.90
8539;DHT22;4307;53.868;11.680;2023-04-01T04:11:05;5.90;99.90
8539;DHT22;4307;53.868;11.680;2023-04-01T04:13:32;5.90;99.90
8539;DHT22;4307;53.868;11.680;2023-04-01T04:15:59;5.90;99.90
8539;DHT22;4307;53.868;11.680;2023-04-01T04:18:25;5.90;99.90
8539;DHT22;4307;53.868;11.680;2023-04-01T04:20:53;5.90;99.90
8539;DHT22;4307;53.868;11.680;2023-04-01T04:23:21;5.90;99.90
8539;DHT22;4307;53.868;11.680;2023-04-01T04:25:55;5.80;99.90
8539;DHT22;4307;53.868;11.680;2023-04-01T04:28:21;5.80;99.90
8539;DHT22;4307;53.868;11.680;2023-04-01T04:30:48;5.80;99.90
8539;DHT22;4307;53.868;11.680;2023-04-01T04:33:15;5.80;99.90
8539;DHT22;4307;53.868;11.680;2023-04-01T04:35:42;5.80;99.90
8539;DHT22;4307;53.868;11.680;2023-04-01T04:38:10;5.80;99.90
8539;DHT22;4307;53.868;11.680;2023-04-01T04:40:37;5.80;99.90
8539;DHT22;4307;53.868;11.680;2023-04-01T04:43:04;5.70;99.90
8539;DHT22;4307;53.868;11.680;2023-04-01T04:45:30;5.80;99.90
8539;DHT22;4307;53.868;11.680;2023-04-01T04:47:57;5.80;99.90
8539;DHT22;4307;53.868;11.680;2023-04-01T04:50:24;5.80;99.90
8539;DHT22;4307;53.868;11.680;2023-04-01T04:52:51;5.70;99.90
8539;DHT22;4307;53.868;11.680;2023-04-01T04:55:19;5.80;99.90
8539;DHT22;4307;53.868;11.680;2023-04-01T04:57:46;5.70;99.90
8539;DHT22;4307;53.868;11.680;2023-04-01T05:00:13;5.70;99.90
8539;DHT22;4307;53.868;11.680;2023-04-01T05:02:40;5.70;99.90
8539;DHT22;4307;53.868;11.680;2023-04-01T05:05:07;5.70;99.90
8539;DHT22;4307;53.868;11.680;2023-04-01T05:07:34;5.70;99.90
8539;DHT22;4307;53.868;11.680;2023-04-01T05:10:01;5.70;99.90
8539;DHT22;4307;53.868;11.680;2023-04-01T05:12:29;5.70;99.90
8539;DHT22;4307;53.868;11.680;2023-04-01T05:14:56;5.70;99.90
8539;DHT22;4307;53.868;11.680;2023-04-01T05:17:22;5.70;99.90
8539;DHT22;4307;53.868;11.680;2023-04-01T05:19:49;5.60;99.90
8539;DHT22;4307;53.868;11.680;2023-04-01T05:22:16;5.60;99.90
8539;DHT22;4307;53.868;11.680;2023-04-01T05:24:42;5.70;99.90
8539;DHT22;4307;53.868;11.680;2023-04-01T05:27:09;5.60;99.90
8539;DHT22;4307;53.868;11.680;2023-04-01T05:29:37;5.60;99.90
8539;DHT22;4307;53.868;11.680;2023-04-01T05:32:04;5.60;99.90
8539;DHT22;4307;53.868;11.680;2023-04-01T05:34:31;5.70;99.90
8539;DHT22;4307;53.868;11.680;2023-04-01T05:36:57;5.60;99.90
8539;DHT22;4307;53.868;11.680;2023-04-01T05:39:24;5.60;99.90
8539;DHT22;4307;53.868;11.680;2023-04-01T05:41:51;5.60;99.90
8539;DHT22;4307;53.868;11.680;2023-04-01T05:44:18;5.60;99.90
8539;DHT22;4307;53.868;11.680;2023-04-01T05:46:46;5.60;99.90
8539;DHT22;4307;53.868;11.680;2023-04-01T05:49:12;5.60;99.90
8539;DHT22;4307;53.868;11.680;2023-04-01T05:51:39;5.60;99.90
8539;DHT22;4307;53.868;11.680;2023-04-01T05:54:06;5.60;99.90
8539;DHT22;4307;53.868;11.680;2023-04-01T05:56:33;5.60;99.90
8539;DHT22;4307;53.868;11.680;2023-04-01T05:58:59;5.50;99.90
8539;DHT22;4307;53.868;11.680;2023-04-01T06:01:26;5.60;99.90
8539;DHT22;4307;53.868;11.680;2023-04-01T06:03:54;5.60;99.90
8539;DHT22;4307;53.868;11.680;2023-04-01T06:06:24;5.50;99.90
8539;DHT22;4307;53.868;11.680;2023-04-01T06:08:51;5.50;99.90
8539;DHT22;4307;53.868;11.680;2023-04-01T06:11:25;5.60;99.90
8539;DHT22;4307;53.868;11.680;2023-04-01T06:14:10;5.60;99.90
8539;DHT22;4307;53.868;11.680;2023-04-01T06:16:45;5.50;99.90
8539;DHT22;4307;53.868;11.680;2023-04-01T06:19:26;5.50;99.90
8539;DHT22;4307;53.868;11.680;2023-04-01T06:22:22;5.60;99.90
8539;DHT22;4307;53.868;11.680;2023-04-01T06:28:01;5.60;99.90
8539;DHT22;4307;53.868;11.680;2023-04-01T06:30:40;5.60;99.90
8539;DHT22;4307;53.868;11.680;2023-04-01T06:33:32;5.60;99.90
8539;DHT22;4307;53.868;11.680;2023-04-01T06:36:27;5.60;99.90
8539;DHT22;4307;53.868;11.680;2023-04-01T06:39:21;5.60;99.90
8539;DHT22;4307;53.868;11.680;2023-04-01T06:45:03;5.60;99.90
8539;DHT22;4307;53.868;11.680;2023-04-01T06:47:41;5.60;99.90
8539;DHT22;4307;53.868;11.680;2023-04-01T06:50:19;5.60;99.90
8539;DHT22;4307;53.868;11.680;2023-04-01T06:52:55;5.60;99.90
8539;DHT22;4307;53.868;11.680;2023-04-01T06:55:27;5.60;99.90
8539;DHT22;4307;53.868;11.680;2023-04-01T06:57:59;5.60;99.90
8539;DHT22;4307;53.868;11.680;2023-04-01T07:00:30;5.60;99.90
8539;DHT22;4307;53.868;11.680;2023-04-01T07:03:05;5.60;99.90
8539;DHT22;4307;53.868;11.680;2023-04-01T07:05:33;5.60;99.90
8539;DHT22;4307;53.868;11.680;2023-04-01T07:08:04;5.60;99.90
8539;DHT22;4307;53.868;11.680;2023-04-01T07:10:35;5.60;99.90
8539;DHT22;4307;53.868;11.680;2023-04-01T07:13:12;5.60;99.90
8539;DHT22;4307;53.868;11.680;2023-04-01T07:15:42;5.60;99.90
8539;DHT22;4307;53.868;11.680;2023-04-01T07:18:14;5.60;99.90
8539;DHT22;4307;53.868;11.680;2023-04-01T07:20:42;5.60;99.90
8539;DHT22;4307;53.868;11.680;2023-04-01T07:23:20;5.60;99.90
8539;DHT22;4307;53.868;11.680;2023-04-01T07:25:51;5.60;99.90
8539;DHT22;4307;53.868;11.680;2023-04-01T07:28:18;5.60;99.90
8539;DHT22;4307;53.868;11.680;2023-04-01T07:30:52;5.60;99.90
8539;DHT22;4307;53.868;11.680;2023-04-01T07:33:24;5.60;99.90
8539;DHT22;4307;53.868;11.680;2023-04-01T07:35:58;5.60;99.90
8539;DHT22;4307;53.868;11.680;2023-04-01T07:38:35;5.60;99.90
8539;DHT22;4307;53.868;11.680;2023-04-01T07:41:12;5.60;99.90
8539;DHT22;4307;53.868;11.680;2023-04-01T07:43:56;5.60;99.90
8539;DHT22;4307;53.868;11.680;2023-04-01T07:46:41;5.60;99.90
8539;DHT22;4307;53.868;11.680;2023-04-01T07:49:16;5.60;99.90
8539;DHT22;4307;53.868;11.680;2023-04-01T07:51:52;5.60;99.90
8539;DHT22;4307;53.868;11.680;2023-04-01T07:54:32;5.50;99.90
8539;DHT22;4307;53.868;11.680;2023-04-01T07:57:03;5.60;99.90
8539;DHT22;4307;53.868;11.680;2023-04-01T07:59:39;5.60;99.90
8539;DHT22;4307;53.868;11.680;2023-04-01T08:02:18;5.60;99.90
8539;DHT22;4307;53.868;11.680;2023-04-01T08:04:55;5.60;99.90
8539;DHT22;4307;53.868;11.680;2023-04-01T08:07:27;5.60;99.90
8539;DHT22;4307;53.868;11.680;2023-04-01T08:10:04;5.70;99.90
8539;DHT22;4307;53.868;11.680;2023-04-01T08:12:45;5.70;99.90
8539;DHT22;4307;53.868;11.680;2023-04-01T08:15:19;5.70;99.90
8539;DHT22;4307;53.868;11.680;2023-04-01T08:17:57;5.70;99.90
8539;DHT22;4307;53.868;11.680;2023-04-01T08:20:32;5.80;99.90
8539;DHT22;4307;53.868;11.680;2023-04-01T08:23:05;5.80;99.90
8539;DHT22;4307;53.868;11.680;2023-04-01T08:25:37;5.80;99.90
8539;DHT22;4307;53.868;11.680;2023-04-01T08:28:13;5.80;99.90
8539;DHT22;4307;53.868;11.680;2023-04-01T08:30:45;5.80;99.90
8539;DHT22;4307;53.868;11.680;2023-04-01T08:33:17;5.70;99.90
8539;DHT22;4307;53.868;11.680;2023-04-01T08:35:48;5.80;99.90
8539;DHT22;4307;53.868;11.680;2023-04-01T08:38:20;5.70;99.90
8539;DHT22;4307;53.868;11.680;2023-04-01T08:41:00;5.80;99.90
8539;DHT22;4307;53.868;11.680;2023-04-01T08:43:54;5.80;99.90
8539;DHT22;4307;53.868;11.680;2023-04-01T08:46:44;5.80;99.90
8539;DHT22;4307;53.868;11.680;2023-04-01T08:49:22;5.70;99.90
8539;DHT22;4307;53.868;11.680;2023-04-01T08:52:17;5.70;99.90
8539;DHT22;4307;53.868;11.680;2023-04-01T09:00:49;5.70;99.90
8539;DHT22;4307;53.868;11.680;2023-04-01T09:03:34;5.70;99.90
8539;DHT22;4307;53.868;11.680;2023-04-01T09:06:26;5.70;99.90
8539;DHT22;4307;53.868;11.680;2023-04-01T09:09:18;5.60;99.90
8539;DHT22;4307;53.868;11.680;2023-04-01T09:12:03;5.60;99.90
8539;DHT22;4307;53.868;11.680;2023-04-01T09:14:59;5.60;99.90
8539;DHT22;4307;53.868;11.680;2023-04-01T09:20:40;5.50;99.90
8539;DHT22;4307;53.868;11.680;2023-04-01T09:23:29;5.50;99.90
8539;DHT22;4307;53.868;11.680;2023-04-01T09:26:08;5.50;99.90
8539;DHT22;4307;53.868;11.680;2023-04-01T09:28:42;5.50;99.90
8539;DHT22;4307;53.868;11.680;2023-04-01T09:31:32;5.50;99.90
8539;DHT22;4307;53.868;11.680;2023-04-01T09:34:19;5.50;99.90
8539;DHT22;4307;53.868;11.680;2023-04-01T09:37:02;5.40;99.90
8539;DHT22;4307;53.868;11.680;2023-04-01T09:39:37;5.40;99.90
8539;DHT22;4307;53.868;11.680;2023-04-01T09:42:26;5.40;99.90
8539;DHT22;4307;53.868;11.680;2023-04-01T09:44:58;5.40;99.90
8539;DHT22;4307;53.868;11.680;2023-04-01T09:47:42;5.40;99.90
8539;DHT22;4307;53.868;11.680;2023-04-01T09:53:14;5.40;99.90
8539;DHT22;4307;53.868;11.680;2023-04-01T09:59:15;5.30;99.90
8539;DHT22;4307;53.868;11.680;2023-04-01T10:05:19;5.30;99.90
8539;DHT22;4307;53.868;11.680;2023-04-01T10:08:30;5.30;99.90
8539;DHT22;4307;53.868;11.680;2023-04-01T10:11:23;5.30;99.90
8539;DHT22;4307;53.868;11.680;2023-04-01T10:14:18;5.20;99.90
8539;DHT22;4307;53.868;11.680;2023-04-01T10:17:20;5.30;99.90
8539;DHT22;4307;53.868;11.680;2023-04-01T10:20:07;5.30;99.90
8539;DHT22;4307;53.868;11.680;2023-04-01T10:22:59;5.30;99.90
8539;DHT22;4307;53.868;11.680;2023-04-01T10:25:52;5.30;99.90
8539;DHT22;4307;53.868;11.680;2023-04-01T10:31:45;5.30;99.90
8539;DHT22;4307;53.868;11.680;2023-04-01T10:37:28;5.30;99.90
8539;DHT22;4307;53.868;11.680;2023-04-01T10:40:23;5.30;99.90
8539;DHT22;4307;53.868;11.680;2023-04-01T10:43:30;5.40;99.90
8539;DHT22;4307;53.868;11.680;2023-04-01T10:46:28;5.40;99.90
8539;DHT22;4307;53.868;11.680;2023-04-01T10:49:16;5.40;99.90
8539;DHT22;4307;53.868;11.680;2023-04-01T10:52:29;5.50;99.90
8539;DHT22;4307;53.868;11.680;2023-04-01T10:55:26;5.50;99.90
8539;DHT22;4307;53.868;11.680;2023-04-01T10:58:14;5.50;99.90
8539;DHT22;4307;53.868;11.680;2023-04-01T11:01:01;5.50;99.90
8539;DHT22;4307;53.868;11.680;2023-04-01T11:04:03;5.50;99.90
8539;DHT22;4307;53.868;11.680;2023-04-01T11:07:06;5.50;99.90
8539;DHT22;4307;53.868;11.680;2023-04-01T11:10:05;5.50;99.90
8539;DHT22;4307;53.868;11.680;2023-04-01T11:19:04;5.50;99.90
8539;DHT22;4307;53.868;11.680;2023-04-01T11:21:59;5.50;99.90
8539;DHT22;4307;53.868;11.680;2023-04-01T11:27:57;5.60;99.90
8539;DHT22;4307;53.868;11.680;2023-04-01T11:30:41;5.70;99.90
8539;DHT22;4307;53.868;11.680;2023-04-01T11:33:14;5.70;99.90
8539;DHT22;4307;53.868;11.680;2023-04-01T11:36:19;5.70;99.90
8539;DHT22;4307;53.868;11.680;2023-04-01T11:39:03;5.70;99.90
8539;DHT22;4307;53.868;11.680;2023-04-01T11:41:40;5.80;99.90
8539;DHT22;4307;53.868;11.680;2023-04-01T11:44:16;5.70;99.90
8539;DHT22;4307;53.868;11.680;2023-04-01T11:46:52;5.70;99.90
8539;DHT22;4307;53.868;11.680;2023-04-01T11:49:36;5.70;99.90
8539;DHT22;4307;53.868;11.680;2023-04-01T11:52:15;5.70;99.90
8539;DHT22;4307;53.868;11.680;2023-04-01T11:54:56;5.70;99.90
8539;DHT22;4307;53.868;11.680;2023-04-01T11:57:43;5.70;99.90
8539;DHT22;4307;53.868;11.680;2023-04-01T12:00:26;5.70;99.90
8539;DHT22;4307;53.868;11.680;2023-04-01T12:03:11;5.70;99.90
8539;DHT22;4307;53.868;11.680;2023-04-01T12:05:46;5.70;99.90
8539;DHT22;4307;53.868;11.680;2023-04-01T12:08:31;5.70;99.90
8539;DHT22;4307;53.868;11.680;2023-04-01T12:11:04;5.70;99.90
8539;DHT22;4307;53.868;11.680;2023-04-01T12:13:39;5.70;99.90
8539;DHT22;4307;53.868;11.680;2023-04-01T12:16:24;5.70;99.90
8539;DHT22;4307;53.868;11.680;2023-04-01T12:18:55;5.70;99.90
8539;DHT22;4307;53.868;11.680;2023-04-01T12:21:27;5.70;99.90
8539;DHT22;4307;53.868;11.680;2023-04-01T12:24:25;5.70;99.90
8539;DHT22;4307;53.868;11.680;2023-04-01T12:27:13;5.80;99.90
8539;DHT22;4307;53.868;11.680;2023-04-01T12:30:26;5.80;99.90
8539;DHT22;4307;53.868;11.680;2023-04-01T12:33:04;5.80;99.90
8539;DHT22;4307;53.868;11.680;2023-04-01T12:35:48;5.80;99.90
8539;DHT22;4307;53.868;11.680;2023-04-01T12:38:28;5.80;99.90
8539;DHT22;4307;53.868;11.680;2023-04-01T12:41:08;5.80;99.90
8539;DHT22;4307;53.868;11.680;2023-04-01T12:44:01;5.80;99.90
8539;DHT22;4307;53.868;11.680;2023-04-01T12:46:39;5.80;99.90
8539;DHT22;4307;53.868;11.680;2023-04-01T12:52:06;5.90;99.90
8539;DHT22;4307;53.868;11.680;2023-04-01T12:54:57;5.90;99.90
8539;DHT22;4307;53.868;11.680;2023-04-01T12:57:53;5.90;99.90
8539;DHT22;4307;53.868;11.680;2023-04-01T13:00:35;5.80;99.90
8539;DHT22;4307;53.868;11.680;2023-04-01T13:03:31;5.80;99.90
8539;DHT22;4307;53.868;11.680;2023-04-01T13:09:09;5.80;99.90
8539;DHT22;4307;53.868;11.680;2023-04-01T13:11:54;5.80;99.90
8539;DHT22;4307;53.868;11.680;2023-04-01T13:14:44;5.80;99.90
8539;DHT22;4307;53.868;11.680;2023-04-01T13:17:15;5.80;99.90
8539;DHT22;4307;53.868;11.680;2023-04-01T13:19:49;5.80;99.90
8539;DHT22;4307;53.868;11.680;2023-04-01T13:22:24;5.80;99.90
8539;DHT22;4307;53.868;11.680;2023-04-01T13:25:00;5.80;99.90
8539;DHT22;4307;53.868;11.680;2023-04-01T13:27:34;5.80;99.90
8539;DHT22;4307;53.868;11.680;2023-04-01T13:30:18;5.80;99.90
8539;DHT22;4307;53.868;11.680;2023-04-01T13:32:52;5.80;99.90
8539;DHT22;4307;53.868;11.680;2023-04-01T13:35:30;5.80;99.90
8539;DHT22;4307;53.868;11.680;2023-04-01T13:38:12;5.80;99.90
8539;DHT22;4307;53.868;11.680;2023-04-01T13:40:51;5.70;99.90
8539;DHT22;4307;53.868;11.680;2023-04-01T13:43:23;5.70;99.90
8539;DHT22;4307;53.868;11.680;2023-04-01T13:46:12;5.70;99.90
8539;DHT22;4307;53.868;11.680;2023-04-01T13:49:00;5.70;99.90
8539;DHT22;4307;53.868;11.680;2023-04-01T13:54:47;5.60;99.90
8539;DHT22;4307;53.868;11.680;2023-04-01T13:57:34;5.60;99.90
8539;DHT22;4307;53.868;11.680;2023-04-01T14:00:22;5.60;99.90
8539;DHT22;4307;53.868;11.680;2023-04-01T14:03:07;5.60;99.90
8539;DHT22;4307;53.868;11.680;2023-04-01T14:05:47;5.60;99.90
8539;DHT22;4307;53.868;11.680;2023-04-01T14:08:26;5.60;99.90
8539;DHT22;4307;53.868;11.680;2023-04-01T14:11:06;5.60;99.90
8539;DHT22;4307;53.868;11.680;2023-04-01T14:13:43;5.60;99.90
8539;DHT22;4307;53.868;11.680;2023-04-01T14:19:22;5.50;99.90
8539;DHT22;4307;53.868;11.680;2023-04-01T14:21:59;5.50;99.90
8539;DHT22;4307;53.868;11.680;2023-04-01T14:24:50;5.50;99.90
8539;DHT22;4307;53.868;11.680;2023-04-01T14:27:32;5.50;99.90
8539;DHT22;4307;53.868;11.680;2023-04-01T14:30:27;5.40;99.90
8539;DHT22;4307;53.868;11.680;2023-04-01T14:33:03;5.50;99.90
8539;DHT22;4307;53.868;11.680;2023-04-01T14:35:37;5.40;99.90
8539;DHT22;4307;53.868;11.680;2023-04-01T14:40:56;5.40;99.90
8539;DHT22;4307;53.868;11.680;2023-04-01T14:49:21;5.30;99.90
8539;DHT22;4307;53.868;11.680;2023-04-01T14:51:49;5.30;99.90
8539;DHT22;4307;53.868;11.680;2023-04-01T14:54:20;5.30;99.90
8539;DHT22;4307;53.868;11.680;2023-04-01T14:56:50;5.30;99.90
8539;DHT22;4307;53.868;11.680;2023-04-01T14:59:28;5.30;99.90
8539;DHT22;4307;53.868;11.680;2023-04-01T15:02:01;5.30;99.90
8539;DHT22;4307;53.868;11.680;2023-04-01T15:04:44;5.30;99.90
8539;DHT22;4307;53.868;11.680;2023-04-01T15:07:51;5.30;99.90
8539;DHT22;4307;53.868;11.680;2023-04-01T15:10:43;5.20;99.90
8539;DHT22;4307;53.868;11.680;2023-04-01T15:13:16;5.20;99.90
8539;DHT22;4307;53.868;11.680;2023-04-01T15:16:00;5.20;99.90
8539;DHT22;4307;53.868;11.680;2023-04-01T15:18:37;5.20;99.90
8539;DHT22;4307;53.868;11.680;2023-04-01T15:21:21;5.20;99.90
8539;DHT22;4307;53.868;11.680;2023-04-01T15:24:06;5.20;99.90
8539;DHT22;4307;53.868;11.680;2023-04-01T15:27:06;5.20;99.90
8539;DHT22;4307;53.868;11.680;2023-04-01T15:29:47;5.20;99.90
8539;DHT22;4307;53.868;11.680;2023-04-01T15:32:24;5.20;99.90
8539;DHT22;4307;53.868;11.680;2023-04-01T15:34:58;5.20;99.90
8539;DHT22;4307;53.868;11.680;2023-04-01T15:37:35;5.20;99.90
8539;DHT22;4307;53.868;11.680;2023-04-01T15:40:15;5.20;99.90
8539;DHT22;4307;53.868;11.680;2023-04-01T15:42:55;5.20;99.90
8539;DHT22;4307;53.868;11.680;2023-04-01T15:45:32;5.20;99.90
8539;DHT22;4307;53.868;11.680;2023-04-01T15:48:12;5.30;99.90
8539;DHT22;4307;53.868;11.680;2023-04-01T15:50:54;5.20;99.90
8539;DHT22;4307;53.868;11.680;2023-04-01T15:53:40;5.20;99.90
8539;DHT22;4307;53.868;11.680;2023-04-01T15:56:16;5.20;99.90
8539;DHT22;4307;53.868;11.680;2023-04-01T15:58:56;5.20;99.90
8539;DHT22;4307;53.868;11.680;2023-04-01T16:01:33;5.20;99.90
8539;DHT22;4307;53.868;11.680;2023-04-01T16:04:18;5.20;99.90
8539;DHT22;4307;53.868;11.680;2023-04-01T16:06:56;5.20;99.90
8539;DHT22;4307;53.868;11.680;2023-04-01T16:09:39;5.20;99.90
8539;DHT22;4307;53.868;11.680;2023-04-01T16:12:16;5.20;99.90
8539;DHT22;4307;53.868;11.680;2023-04-01T16:14:53;5.10;99.90
8539;DHT22;4307;53.868;11.680;2023-04-01T16:17:36;5.10;99.90
8539;DHT22;4307;53.868;11.680;2023-04-01T16:20:18;5.10;99.90
8539;DHT22;4307;53.868;11.680;2023-04-01T16:22:52;5.10;99.90
8539;DHT22;4307;53.868;11.680;2023-04-01T16:25:36;5.10;99.90
8539;DHT22;4307;53.868;11.680;2023-04-01T16:28:18;5.10;99.90
8539;DHT22;4307;53.868;11.680;2023-04-01T16:30:48;5.10;99.90
8539;DHT22;4307;53.868;11.680;2023-04-01T16:33:23;5.10;99.90
8539;DHT22;4307;53.868;11.680;2023-04-01T16:35:55;5.00;99.90
8539;DHT22;4307;53.868;11.680;2023-04-01T16:38:26;5.00;99.90
8539;DHT22;4307;53.868;11.680;2023-04-01T16:41:10;5.00;99.90
8539;DHT22;4307;53.868;11.680;2023-04-01T16:43:41;5.00;99.90
8539;DHT22;4307;53.868;11.680;2023-04-01T16:46:22;5.00;99.90
8539;DHT22;4307;53.868;11.680;2023-04-01T16:48:59;5.00;99.90
8539;DHT22;4307;53.868;11.680;2023-04-01T16:51:34;4.90;99.90
8539;DHT22;4307;53.868;11.680;2023-04-01T16:54:08;4.90;99.90
8539;DHT22;4307;53.868;11.680;2023-04-01T16:56:40;4.90;99.90
8539;DHT22;4307;53.868;11.680;2023-04-01T16:59:16;4.90;99.90
8539;DHT22;4307;53.868;11.680;2023-04-01T17:01:49;4.90;99.90
8539;DHT22;4307;53.868;11.680;2023-04-01T17:04:22;4.90;99.90
8539;DHT22;4307;53.868;11.680;2023-04-01T17:06:54;4.90;99.90
8539;DHT22;4307;53.868;11.680;2023-04-01T17:09:30;4.90;99.90
8539;DHT22;4307;53.868;11.680;2023-04-01T17:12:07;4.90;99.90
8539;DHT22;4307;53.868;11.680;2023-04-01T17:14:42;4.90;99.90
8539;DHT22;4307;53.868;11.680;2023-04-01T17:17:19;4.90;99.90
8539;DHT22;4307;53.868;11.680;2023-04-01T17:20:01;4.80;99.90
8539;DHT22;4307;53.868;11.680;2023-04-01T17:22:36;4.80;99.90
8539;DHT22;4307;53.868;11.680;2023-04-01T17:28:02;4.80;99.90
8539;DHT22;4307;53.868;11.680;2023-04-01T17:30:33;4.80;99.90
8539;DHT22;4307;53.868;11.680;2023-04-01T17:33:20;4.80;99.90
8539;DHT22;4307;53.868;11.680;2023-04-01T17:35:56;4.80;99.90
8539;DHT22;4307;53.868;11.680;2023-04-01T17:41:29;4.70;99.90
8539;DHT22;4307;53.868;11.680;2023-04-01T17:44:07;4.70;99.90
8539;DHT22;4307;53.868;11.680;2023-04-01T17:47:18;4.70;99.90
8539;DHT22;4307;53.868;11.680;2023-04-01T17:49:55;4.70;99.90
8539;DHT22;4307;53.868;11.680;2023-04-01T17:52:27;4.60;99.90
8539;DHT22;4307;53.868;11.680;2023-04-01T17:55:15;4.60;99.90
8539;DHT22;4307;53.868;11.680;2023-04-01T17:57:51;4.60;99.90
8539;DHT22;4307;53.868;11.680;2023-04-01T18:00:26;4.50;99.90
8539;DHT22;4307;53.868;11.680;2023-04-01T18:03:03;4.50;99.90
8539;DHT22;4307;53.868;11.680;2023-04-01T18:05:41;4.50;99.90
8539;DHT22;4307;53.868;11.680;2023-04-01T18:08:14;4.40;99.90
8539;DHT22;4307;53.868;11.680;2023-04-01T18:10:54;4.40;99.90